Time;durP1;ratioP1;P1;durP2;ratioP2;P2;SDS_P1;SDS_P2;PMS_P1;PMS_P2;Temp;Humidity;BMP_temperature;BMP_pressure;BME280_temperature;BME280_humidity;BME280_pressure;Samples;Min_cycle;Max_cycle;Signal;HPM_P1;HPM_P2
2021/06/15 00:00:01;;;;;;;3.37;1.67;;;16.60;99.90;;;;;;1953309;72;21059;-78
2021/06/15 00:02:30;;;;;;;3.13;1.80;;;16.50;99.90;;;;;;1953583;73;21171;-79
2021/06/15 00:04:55;;;;;;;1.45;1.30;;;16.40;99.90;;;;;;1953028;73;21072;-79
2021/06/15 00:07:21;;;;;;;3.52;1.50;;;16.30;99.90;;;;;;1953442;73;21106;-79
2021/06/15 00:09:47;;;;;;;3.42;1.80;;;16.20;99.90;;;;;;1953126;73;21141;-79
2021/06/15 00:12:14;;;;;;;1.87;1.70;;;16.10;99.90;;;;;;1953231;72;21070;-78
2021/06/15 00:14:43;;;;;;;2.50;1.40;;;16.10;99.90;;;;;;1953094;73;21079;-77
2021/06/15 00:17:12;;;;;;;3.95;1.90;;;16.10;99.90;;;;;;1953204;73;21157;-78
2021/06/15 00:19:44;;;;;;;2.72;1.47;;;16.10;99.90;;;;;;1953110;73;21116;-78
2021/06/15 00:22:13;;;;;;;3.00;1.57;;;16.10;99.90;;;;;;1953140;73;21083;-78
2021/06/15 00:24:39;;;;;;;3.77;1.87;;;16.10;99.90;;;;;;1953155;73;21072;-79
2021/06/15 00:27:06;;;;;;;6.22;2.22;;;16.10;99.90;;;;;;1953401;73;21062;-76
2021/06/15 00:29:35;;;;;;;5.37;1.87;;;16.00;99.90;;;;;;1953368;72;21506;-78
2021/06/15 00:32:00;;;;;;;7.03;1.65;;;16.00;99.90;;;;;;1952790;72;21102;-78
2021/06/15 00:34:26;;;;;;;3.35;1.47;;;16.00;99.90;;;;;;1953429;72;21052;-78
2021/06/15 00:36:59;;;;;;;2.20;1.40;;;15.90;99.90;;;;;;1953339;73;21095;-79
2021/06/15 00:39:20;;;;;;;4.00;1.65;;;15.90;99.90;;;;;;1950772;72;21153;-78
2021/06/15 00:41:49;;;;;;;2.92;1.40;;;15.90;99.90;;;;;;1953199;73;21060;-77
2021/06/15 00:44:15;;;;;;;3.12;1.50;;;15.80;99.90;;;;;;1953192;73;21067;-78
2021/06/15 00:46:41;;;;;;;2.08;1.40;;;15.80;99.90;;;;;;1953358;73;21131;-77
2021/06/15 00:49:10;;;;;;;4.78;1.50;;;15.70;99.90;;;;;;1953291;73;21074;-78
2021/06/15 00:51:36;;;;;;;2.08;1.45;;;15.60;99.90;;;;;;1956147;72;21051;-78
2021/06/15 00:54:05;;;;;;;2.02;1.55;;;15.50;99.90;;;;;;1955503;73;21452;-78
2021/06/15 00:56:41;;;;;;;;;;;;;;;;;;;;;
2021/06/15 00:59:02;;;;;;;3.90;1.77;;;15.50;99.90;;;;;;1950069;72;21540;-77
2021/06/15 01:01:29;;;;;;;1.60;1.45;;;15.50;99.90;;;;;;1953622;73;21059;-78
2021/06/15 01:03:55;;;;;;;5.90;1.80;;;15.40;99.90;;;;;;1953473;73;21152;-78
2021/06/15 01:06:21;;;;;;;1.92;1.62;;;15.40;99.90;;;;;;1953306;73;21125;-78
2021/06/15 01:08:47;;;;;;;2.20;1.50;;;15.30;99.90;;;;;;1953283;72;21028;-78
2021/06/15 01:11:13;;;;;;;1.67;1.50;;;15.30;99.90;;;;;;1953286;73;21084;-77
2021/06/15 01:13:41;;;;;;;6.58;1.92;;;15.30;99.90;;;;;;1953192;73;21153;-77
2021/06/15 01:16:07;;;;;;;4.25;1.95;;;15.30;99.90;;;;;;1953209;72;21072;-77
2021/06/15 01:18:39;;;;;;;2.72;2.15;;;15.30;99.90;;;;;;1953443;72;21124;-79
2021/06/15 01:21:05;;;;;;;3.00;2.20;;;15.20;99.90;;;;;;1953407;73;21060;-78
2021/06/15 01:23:31;;;;;;;5.75;2.40;;;15.20;99.90;;;;;;1953174;73;21118;-78
2021/06/15 01:26:01;;;;;;;5.22;2.75;;;15.20;99.90;;;;;;1953216;73;21145;-79
2021/06/15 01:28:27;;;;;;;2.17;1.80;;;15.10;99.90;;;;;;1953197;73;21060;-78
2021/06/15 01:30:57;;;;;;;3.85;2.00;;;15.10;99.90;;;;;;1953377;72;21064;-78
2021/06/15 01:33:21;;;;;;;6.35;1.87;;;15.10;99.90;;;;;;1951889;73;21071;-77
2021/06/15 01:35:47;;;;;;;2.30;1.65;;;15.10;99.90;;;;;;1950050;73;21142;-78
2021/06/15 01:38:16;;;;;;;2.35;1.67;;;15.00;99.90;;;;;;1953180;73;21165;-78
2021/06/15 01:40:42;;;;;;;1.90;1.70;;;15.00;99.90;;;;;;1953162;72;21127;-77
2021/06/15 01:43:08;;;;;;;6.58;2.10;;;14.90;99.90;;;;;;1953182;72;21087;-79
2021/06/15 01:45:35;;;;;;;3.20;1.65;;;14.90;99.90;;;;;;1953264;73;21616;-79
2021/06/15 01:48:05;;;;;;;4.42;2.22;;;14.90;99.90;;;;;;1953485;72;21087;-79
2021/06/15 01:50:32;;;;;;;4.05;1.90;;;14.90;99.90;;;;;;1952847;73;21460;-78
2021/06/15 01:52:56;;;;;;;3.92;2.08;;;14.90;99.90;;;;;;1952975;72;21165;-78
2021/06/15 01:55:22;;;;;;;6.58;2.00;;;14.90;99.90;;;;;;1953302;73;21080;-78
2021/06/15 01:57:48;;;;;;;2.47;1.85;;;14.80;99.90;;;;;;1953292;73;21162;-78
2021/06/15 02:00:15;;;;;;;8.10;1.85;;;14.80;99.90;;;;;;1953248;73;21054;-78
2021/06/15 02:02:41;;;;;;;2.70;1.70;;;14.70;99.90;;;;;;1953486;73;21115;-78
2021/06/15 02:05:08;;;;;;;4.58;2.40;;;14.60;99.90;;;;;;1953195;72;21023;-78
2021/06/15 02:07:34;;;;;;;3.70;1.85;;;14.60;99.90;;;;;;1953093;73;21055;-78
2021/06/15 02:10:01;;;;;;;8.58;1.90;;;14.50;99.90;;;;;;1953260;73;21068;-78
2021/06/15 02:12:27;;;;;;;2.70;1.75;;;14.40;99.90;;;;;;1953162;73;21168;-78
2021/06/15 02:14:53;;;;;;;7.30;1.85;;;14.40;99.90;;;;;;1953311;73;21173;-78
2021/06/15 02:17:19;;;;;;;3.70;2.25;;;14.40;99.90;;;;;;1953309;72;21084;-78
2021/06/15 02:19:47;;;;;;;3.67;2.62;;;14.30;99.90;;;;;;1953158;73;21068;-78
2021/06/15 02:22:13;;;;;;;3.00;1.90;;;14.30;99.90;;;;;;1953077;73;21092;-78
2021/06/15 02:24:42;;;;;;;2.33;1.95;;;14.30;99.90;;;;;;1953209;73;21079;-78
2021/06/15 02:27:14;;;;;;;4.33;2.05;;;14.30;99.90;;;;;;1953376;72;21531;-78
2021/06/15 02:29:37;;;;;;;2.83;1.95;;;14.30;99.90;;;;;;1951662;73;21065;-78
2021/06/15 02:32:06;;;;;;;2.98;1.75;;;14.30;99.90;;;;;;1953324;72;21062;-78
2021/06/15 02:34:31;;;;;;;3.98;1.77;;;14.30;99.90;;;;;;1952572;73;21080;-78
2021/06/15 02:36:57;;;;;;;3.12;1.87;;;14.30;99.90;;;;;;1953244;73;21145;-78
2021/06/15 02:39:23;;;;;;;2.90;2.00;;;14.30;99.90;;;;;;1953132;73;21071;-77
2021/06/15 02:41:49;;;;;;;5.03;2.37;;;14.30;99.90;;;;;;1953141;73;21064;-78
2021/06/15 02:47:01;;;;;;;2.20;1.65;;;14.20;99.90;;;;;;1863128;75;21156;-78
2021/06/15 02:49:27;;;;;;;6.20;2.12;;;14.10;99.90;;;;;;1862703;77;21125;-78
2021/06/15 02:51:53;;;;;;;4.90;1.80;;;14.10;99.90;;;;;;1862414;77;21159;-77
2021/06/15 02:54:22;;;;;;;2.67;1.67;;;14.10;99.90;;;;;;1862557;77;21147;-78
2021/06/15 02:56:48;;;;;;;2.50;2.10;;;14.00;99.90;;;;;;1862624;77;21081;-77
2021/06/15 02:59:20;;;;;;;4.58;1.70;;;13.90;99.90;;;;;;1862510;77;21046;-77
2021/06/15 03:01:46;;;;;;;6.80;2.37;;;13.90;99.90;;;;;;1862456;76;21061;-77
2021/06/15 03:04:16;;;;;;;3.75;2.15;;;13.80;99.90;;;;;;1862494;77;21111;-78
2021/06/15 03:06:42;;;;;;;3.77;2.15;;;13.80;99.90;;;;;;1862499;77;21093;-78
2021/06/15 03:09:08;;;;;;;5.28;2.25;;;13.80;99.90;;;;;;1862509;77;21073;-79
2021/06/15 03:11:34;;;;;;;6.22;2.10;;;13.70;99.90;;;;;;1862450;77;21104;-79
2021/06/15 03:14:04;;;;;;;2.37;1.75;;;13.70;99.90;;;;;;1862521;76;21085;-78
2021/06/15 03:16:28;;;;;;;2.22;1.92;;;13.60;99.90;;;;;;1861786;74;21077;-77
2021/06/15 03:18:54;;;;;;;3.83;2.45;;;13.70;99.90;;;;;;1862484;77;21108;-77
2021/06/15 03:21:21;;;;;;;4.58;2.25;;;13.70;99.90;;;;;;1862593;77;21081;-78
2021/06/15 03:23:52;;;;;;;2.80;2.02;;;13.60;99.90;;;;;;1860569;74;21202;-77
2021/06/15 03:26:17;;;;;;;;;;;13.60;99.90;;;;;;1864650;73;21173;-78
2021/06/15 03:28:43;;;;;;;3.77;2.20;;;13.60;99.90;;;;;;1861338;75;20145;-78
2021/06/15 03:31:09;;;;;;;2.75;1.90;;;13.60;99.90;;;;;;1862489;76;21085;-77
2021/06/15 03:33:45;;;;;;;;;;;;;;;;;;;;;
2021/06/15 03:36:06;;;;;;;5.95;2.30;;;13.60;99.90;;;;;;1858462;75;21098;-77
2021/06/15 03:38:33;;;;;;;6.20;2.17;;;13.60;99.90;;;;;;1862453;77;21171;-77
2021/06/15 03:40:59;;;;;;;3.42;2.10;;;13.70;99.90;;;;;;1867851;74;21172;-77
2021/06/15 03:43:25;;;;;;;4.17;2.12;;;13.70;99.90;;;;;;1862570;77;21062;-76
2021/06/15 03:45:51;;;;;;;6.70;2.47;;;13.70;99.90;;;;;;1862522;77;21481;-76
2021/06/15 03:48:20;;;;;;;3.70;2.37;;;13.70;99.90;;;;;;1862400;76;21136;-78
2021/06/15 03:50:49;;;;;;;4.67;2.58;;;13.70;99.90;;;;;;1862490;77;21058;-77
2021/06/15 03:53:14;;;;;;;2.98;2.33;;;13.70;99.90;;;;;;1862261;77;21105;-77
2021/06/15 03:55:45;;;;;;;7.28;3.50;;;13.70;99.90;;;;;;1862609;77;21093;-77
2021/06/15 03:58:08;;;;;;;9.35;4.17;;;13.70;99.90;;;;;;1860890;76;21175;-77
2021/06/15 04:00:34;;;;;;;3.40;2.10;;;13.70;99.90;;;;;;1862556;77;21085;-77
2021/06/15 04:03:03;;;;;;;4.50;2.45;;;13.80;99.90;;;;;;1862710;77;21062;-76
2021/06/15 04:05:28;;;;;;;6.03;4.05;;;13.70;99.90;;;;;;1861964;76;21153;-77
2021/06/15 04:07:54;;;;;;;11.60;6.75;;;13.70;99.90;;;;;;1862586;77;21093;-77
2021/06/15 04:10:20;;;;;;;12.58;4.33;;;13.60;99.90;;;;;;1862558;77;21101;-77
2021/06/15 04:12:47;;;;;;;9.83;5.80;;;13.70;99.90;;;;;;1862605;77;21106;-76
2021/06/15 04:15:13;;;;;;;6.15;4.40;;;13.80;99.90;;;;;;1862407;77;21093;-76
2021/06/15 04:17:42;;;;;;;12.50;8.30;;;13.80;99.90;;;;;;1862594;77;21100;-77
2021/06/15 04:20:09;;;;;;;16.27;9.73;;;13.80;99.90;;;;;;1896381;75;21059;-77
2021/06/15 04:22:36;;;;;;;11.15;7.87;;;13.80;99.90;;;;;;1895757;76;21050;-77
2021/06/15 04:25:05;;;;;;;16.82;10.85;;;13.90;99.90;;;;;;1895766;76;21604;-76
2021/06/15 04:27:34;;;;;;;10.23;5.78;;;13.80;99.90;;;;;;1895281;74;21111;-77
2021/06/15 04:30:02;;;;;;;8.23;5.25;;;13.90;99.90;;;;;;1918106;74;21620;-77
2021/06/15 04:32:27;;;;;;;16.75;8.85;;;13.90;99.90;;;;;;1933279;73;21045;-77
2021/06/15 04:34:53;;;;;;;10.82;7.65;;;13.90;99.90;;;;;;1933340;73;21127;-77
2021/06/15 04:37:22;;;;;;;15.85;9.45;;;13.90;99.90;;;;;;1933876;74;21064;-78
2021/06/15 04:39:52;;;;;;;10.58;7.53;;;14.00;99.90;;;;;;1933632;73;21116;-77
2021/06/15 04:42:16;;;;;;;9.75;7.12;;;14.00;99.90;;;;;;1932622;74;21547;-78
2021/06/15 04:44:42;;;;;;;10.40;6.37;;;14.00;99.90;;;;;;1933642;74;21068;-78
2021/06/15 04:47:16;;;;;;;8.75;5.17;;;14.00;99.90;;;;;;1933883;74;21194;-77
2021/06/15 04:49:40;;;;;;;14.10;6.53;;;14.10;99.90;;;;;;1929768;73;21042;-79
2021/06/15 04:52:07;;;;;;;9.13;5.75;;;14.20;99.90;;;;;;1933111;73;21145;-76
2021/06/15 04:54:35;;;;;;;13.75;5.33;;;14.20;99.90;;;;;;1935877;73;21041;-77
2021/06/15 04:57:01;;;;;;;8.65;4.80;;;14.20;99.90;;;;;;1936201;73;21151;-76
2021/06/15 04:59:30;;;;;;;8.43;4.80;;;14.20;99.90;;;;;;1935399;74;21025;-79
2021/06/15 05:01:55;;;;;;;7.03;4.70;;;14.30;99.90;;;;;;1934340;73;21132;-76
2021/06/15 05:04:21;;;;;;;7.85;5.15;;;14.40;99.90;;;;;;1933950;72;21065;-78
2021/06/15 05:06:47;;;;;;;8.95;5.22;;;14.50;99.90;;;;;;1933714;74;21142;-77
2021/06/15 05:09:27;;;;;;;13.28;5.90;;;14.60;99.90;;;;;;1933568;74;21036;-77
2021/06/15 05:11:41;;;;;;;7.03;5.17;;;14.60;99.90;;;;;;1929737;73;21142;-77
2021/06/15 05:14:08;;;;;;;10.65;5.12;;;14.70;99.90;;;;;;1933775;72;21064;-77
2021/06/15 05:16:37;;;;;;;6.25;4.00;;;14.90;99.90;;;;;;1933749;73;21142;-78
2021/06/15 05:19:05;;;;;;;15.43;4.33;;;15.00;99.90;;;;;;1933719;74;21556;-76
2021/06/15 05:21:31;;;;;;;8.45;4.85;;;15.20;99.90;;;;;;1933859;74;21127;-75
2021/06/15 05:23:57;;;;;;;8.18;4.58;;;15.60;99.90;;;;;;1933537;74;21104;-74
2021/06/15 05:26:23;;;;;;;9.23;3.95;;;16.30;99.90;;;;;;1933740;74;21034;-75
2021/06/15 05:28:51;;;;;;;6.78;3.70;;;17.10;99.90;;;;;;1933537;74;21108;-75
2021/06/15 05:31:17;;;;;;;6.40;3.25;;;18.40;99.90;;;;;;1933529;74;21096;-75
2021/06/15 05:33:44;;;;;;;8.35;2.90;;;19.40;99.90;;;;;;1933522;74;21041;-74
2021/06/15 05:36:10;;;;;;;6.33;2.87;;;20.40;99.90;;;;;;1933680;73;21033;-76
2021/06/15 05:38:36;;;;;;;8.75;2.85;;;21.00;99.90;;;;;;1933545;74;21138;-74
2021/06/15 05:41:02;;;;;;;5.53;2.40;;;21.00;99.90;;;;;;1933722;72;21142;-75
2021/06/15 05:43:31;;;;;;;4.65;2.37;;;21.40;99.90;;;;;;1933547;74;21575;-76
2021/06/15 05:45:57;;;;;;;4.97;2.58;;;22.10;99.90;;;;;;1933497;73;21045;-74
2021/06/15 05:48:23;;;;;;;3.27;2.15;;;22.80;99.90;;;;;;1933618;72;21040;-74
2021/06/15 05:50:50;;;;;;;5.17;1.87;;;22.60;99.90;;;;;;1933489;74;21061;-74
2021/06/15 05:53:16;;;;;;;3.95;2.45;;;23.30;99.90;;;;;;1933479;74;21554;-74
2021/06/15 05:55:42;;;;;;;9.10;2.17;;;23.40;99.90;;;;;;1932574;72;21073;-74
2021/06/15 05:58:09;;;;;;;4.60;2.50;;;23.30;99.90;;;;;;1928592;74;21159;-74
2021/06/15 06:00:36;;;;;;;6.12;2.22;;;23.10;99.90;;;;;;1933485;74;21073;-74
2021/06/15 06:03:02;;;;;;;3.45;2.00;;;23.00;99.90;;;;;;1933614;72;21138;-75
2021/06/15 06:08:15;;;;;;;9.48;2.12;;;24.00;99.90;;;;;;1933575;74;21032;-75
2021/06/15 06:10:40;;;;;;;7.67;2.47;;;25.30;99.90;;;;;;1933018;73;21540;-75
2021/06/15 06:13:08;;;;;;;4.20;2.00;;;25.60;99.90;;;;;;1936034;73;21159;-75
2021/06/15 06:15:34;;;;;;;8.90;2.00;;;25.60;99.90;;;;;;1942673;73;21586;-75
2021/06/15 06:18:00;;;;;;;3.90;2.00;;;25.60;99.90;;;;;;1930839;72;21073;-76
2021/06/15 06:20:26;;;;;;;3.27;1.80;;;24.90;99.90;;;;;;1933516;74;21030;-75
2021/06/15 06:22:52;;;;;;;3.55;1.90;;;24.70;99.90;;;;;;1933650;74;21057;-75
2021/06/15 06:25:18;;;;;;;8.03;1.72;;;24.40;99.90;;;;;;1933675;73;21104;-75
2021/06/15 06:27:44;;;;;;;5.75;1.80;;;25.40;99.90;;;;;;1933604;74;21026;-75
2021/06/15 06:30:11;;;;;;;9.53;2.00;;;26.10;99.90;;;;;;1933627;72;21060;-76
2021/06/15 06:32:37;;;;;;;2.33;1.30;;;26.30;99.90;;;;;;1933600;74;21064;-75
2021/06/15 06:35:04;;;;;;;6.87;1.57;;;27.20;99.90;;;;;;1933678;74;21057;-75
2021/06/15 06:37:30;;;;;;;4.10;1.90;;;26.30;99.90;;;;;;1933532;72;21457;-76
2021/06/15 06:39:56;;;;;;;5.75;1.90;;;24.90;99.90;;;;;;1933732;72;21064;-75
2021/06/15 06:42:22;;;;;;;7.53;2.05;;;24.40;99.90;;;;;;1933462;74;21053;-75
2021/06/15 06:44:48;;;;;;;5.47;1.60;;;24.70;99.90;;;;;;1933700;73;21065;-76
2021/06/15 06:47:14;;;;;;;3.12;1.92;;;25.00;99.90;;;;;;1933457;74;21056;-76
2021/06/15 06:49:41;;;;;;;2.75;1.80;;;26.00;99.90;;;;;;1933951;74;21057;-75
2021/06/15 06:54:51;;;;;;;3.30;1.60;;;26.40;99.90;;;;;;1933557;74;21057;-74
2021/06/15 06:57:17;;;;;;;5.90;1.65;;;25.70;99.90;;;;;;1933683;74;21134;-74
2021/06/15 06:59:43;;;;;;;6.10;2.05;;;26.60;99.90;;;;;;1933499;73;21049;-75
2021/06/15 07:02:09;;;;;;;11.97;1.92;;;27.00;99.90;;;;;;1933639;74;21130;-74
2021/06/15 07:04:35;;;;;;;4.47;1.50;;;26.80;99.90;;;;;;1933498;72;21126;-74
2021/06/15 07:07:02;;;;;;;1.40;1.30;;;25.90;99.90;;;;;;1933723;73;21124;-73
2021/06/15 07:09:28;;;;;;;5.67;1.22;;;25.50;99.90;;;;;;1933516;74;21073;-75
2021/06/15 07:11:54;;;;;;;5.22;1.50;;;25.50;99.90;;;;;;1933589;74;21060;-73
2021/06/15 07:14:20;;;;;;;11.80;1.80;;;25.00;99.90;;;;;;1933454;74;21122;-74
2021/06/15 07:16:46;;;;;;;2.55;1.42;;;25.00;99.90;;;;;;1933680;72;21054;-75
2021/06/15 07:19:12;;;;;;;3.90;1.60;;;26.00;99.90;;;;;;1933490;73;21119;-75
2021/06/15 07:21:38;;;;;;;11.73;1.60;;;26.10;99.90;;;;;;1933708;73;21182;-74
2021/06/15 07:24:04;;;;;;;5.28;1.80;;;25.90;99.90;;;;;;1933456;73;21034;-75
2021/06/15 07:26:31;;;;;;;4.90;1.70;;;25.00;99.90;;;;;;1933591;74;21142;-75
2021/06/15 07:28:59;;;;;;;4.72;1.77;;;25.60;99.90;;;;;;1933770;74;21138;-76
2021/06/15 07:31:24;;;;;;;2.90;1.60;;;25.50;99.90;;;;;;1933494;74;21130;-76
2021/06/15 07:33:51;;;;;;;5.22;1.40;;;26.80;99.90;;;;;;1933437;73;21034;-76
2021/06/15 07:36:17;;;;;;;7.53;1.50;;;26.10;99.90;;;;;;1933596;74;21066;-77
2021/06/15 07:38:43;;;;;;;4.22;1.40;;;26.10;99.90;;;;;;1933442;73;21061;-76
2021/06/15 07:41:09;;;;;;;3.98;1.87;;;26.80;99.90;;;;;;1933661;72;21065;-76
2021/06/15 07:43:37;;;;;;;1.87;1.30;;;26.70;99.90;;;;;;1933481;74;21055;-76
2021/06/15 07:46:03;;;;;;;5.47;1.60;;;27.20;99.90;;;;;;1933582;74;21445;-76
2021/06/15 07:48:29;;;;;;;10.25;1.32;;;27.90;98.70;;;;;;1933466;74;21582;-75
2021/06/15 07:50:55;;;;;;;3.90;1.50;;;27.80;97.50;;;;;;1933592;74;21406;-76
2021/06/15 07:53:22;;;;;;;1.85;1.20;;;26.60;99.00;;;;;;1933501;74;21481;-76
2021/06/15 07:55:48;;;;;;;1.77;1.05;;;25.90;98.90;;;;;;1933678;74;21115;-75
2021/06/15 07:58:14;;;;;;;2.70;1.45;;;26.10;98.50;;;;;;1933696;74;21119;-75
2021/06/15 08:00:40;;;;;;;6.05;1.15;;;26.40;97.90;;;;;;1933774;74;21147;-76
2021/06/15 08:03:06;;;;;;;2.37;1.20;;;27.50;98.90;;;;;;1933646;74;21125;-75
2021/06/15 08:05:33;;;;;;;3.92;1.30;;;27.80;96.80;;;;;;1933534;74;21061;-74
2021/06/15 08:08:00;;;;;;;4.67;1.42;;;27.10;96.90;;;;;;1933545;73;21142;-74
2021/06/15 08:10:26;;;;;;;4.33;2.05;;;27.60;97.80;;;;;;1933378;74;21126;-74
2021/06/15 08:12:53;;;;;;;10.28;1.35;;;28.70;97.70;;;;;;1933405;73;21029;-74
2021/06/15 08:15:20;;;;;;;5.10;1.80;;;28.50;95.70;;;;;;1933436;74;21076;-73
2021/06/15 08:17:46;;;;;;;3.80;1.50;;;27.50;95.90;;;;;;1933598;74;21069;-73
2021/06/15 08:20:12;;;;;;;2.85;1.20;;;27.70;96.00;;;;;;1933337;74;21032;-73
2021/06/15 08:22:38;;;;;;;6.35;1.17;;;27.20;96.90;;;;;;1933598;72;21108;-74
2021/06/15 08:25:04;;;;;;;4.03;1.30;;;27.50;95.00;;;;;;1933897;74;21025;-74
2021/06/15 08:27:38;;;;;;;3.65;1.32;;;27.60;95.00;;;;;;1933816;72;21061;-75
2021/06/15 08:30:01;;;;;;;4.17;1.20;;;27.80;93.80;;;;;;1933013;74;21030;-74
2021/06/15 08:32:27;;;;;;;1.80;1.10;;;27.30;93.90;;;;;;1934007;73;21122;-74
2021/06/15 08:34:53;;;;;;;3.55;1.20;;;27.60;94.30;;;;;;1934007;72;21033;-74
2021/06/15 08:37:20;;;;;;;1.95;1.40;;;28.00;93.90;;;;;;1934002;72;21030;-75
2021/06/15 08:39:46;;;;;;;5.58;1.47;;;27.60;95.10;;;;;;1933753;74;21107;-74
2021/06/15 08:42:12;;;;;;;4.25;1.82;;;27.10;96.90;;;;;;1933691;73;21060;-74
2021/06/15 08:44:38;;;;;;;5.05;1.80;;;27.20;95.80;;;;;;1933749;74;21165;-74
2021/06/15 08:47:04;;;;;;;5.05;1.70;;;27.50;96.50;;;;;;1933488;74;21278;-74
2021/06/15 08:49:30;;;;;;;4.03;1.85;;;28.10;96.20;;;;;;1933542;74;21056;-74
2021/06/15 08:51:56;;;;;;;10.50;1.50;;;28.80;94.50;;;;;;1933502;72;21158;-74
2021/06/15 08:54:22;;;;;;;5.70;1.70;;;28.80;93.80;;;;;;1933511;74;21065;-74
2021/06/15 08:56:49;;;;;;;3.20;1.20;;;28.30;93.80;;;;;;1933583;74;21096;-74
2021/06/15 08:59:15;;;;;;;4.90;1.37;;;28.30;95.00;;;;;;1933684;74;21068;-74
2021/06/15 09:01:41;;;;;;;4.50;1.45;;;28.90;92.90;;;;;;1933702;74;21072;-73
2021/06/15 09:04:07;;;;;;;4.12;1.52;;;28.60;93.90;;;;;;1933796;74;21034;-74
2021/06/15 09:06:33;;;;;;;3.15;0.98;;;28.50;93.50;;;;;;1933864;74;21142;-74
2021/06/15 09:08:59;;;;;;;8.30;1.32;;;28.80;93.60;;;;;;1898482;74;21409;-74
2021/06/15 09:11:25;;;;;;;4.92;1.45;;;28.90;93.20;;;;;;1934170;74;21489;-76
2021/06/15 09:13:51;;;;;;;2.45;1.40;;;28.50;94.10;;;;;;1937222;73;21045;-74
2021/06/15 09:16:19;;;;;;;2.27;1.45;;;28.90;93.80;;;;;;1934267;74;21033;-74
2021/06/15 09:18:46;;;;;;;5.28;1.30;;;28.40;93.70;;;;;;1934370;74;21057;-74
2021/06/15 09:21:14;;;;;;;7.70;1.57;;;28.30;93.50;;;;;;1934343;73;21041;-73
2021/06/15 09:23:42;;;;;;;4.85;1.35;;;28.90;92.90;;;;;;1933676;72;21456;-73
2021/06/15 09:26:08;;;;;;;2.67;1.47;;;28.30;93.00;;;;;;1935369;74;21329;-72
2021/06/15 09:28:35;;;;;;;4.75;1.25;;;28.70;91.60;;;;;;1937255;74;20989;-74
2021/06/15 09:31:02;;;;;;;2.92;1.20;;;28.50;93.00;;;;;;1934768;74;21040;-74
2021/06/15 09:33:28;;;;;;;4.60;1.05;;;28.50;91.80;;;;;;1934134;74;21181;-75
2021/06/15 09:35:54;;;;;;;1.60;1.15;;;28.30;92.60;;;;;;1934224;74;21065;-74
2021/06/15 09:38:20;;;;;;;2.72;1.12;;;28.30;91.70;;;;;;1934174;74;21057;-74
2021/06/15 09:40:46;;;;;;;2.52;1.30;;;28.20;89.80;;;;;;1934321;72;21056;-74
2021/06/15 09:43:13;;;;;;;1.37;1.00;;;28.50;89.60;;;;;;1934029;72;21477;-75
2021/06/15 09:45:39;;;;;;;4.05;0.98;;;29.30;88.90;;;;;;1933992;74;21590;-74
2021/06/15 09:48:05;;;;;;;3.83;1.25;;;29.30;86.20;;;;;;1933917;74;21484;-73
2021/06/15 09:50:31;;;;;;;2.50;1.37;;;28.80;89.80;;;;;;1933985;74;21534;-74
2021/06/15 09:52:57;;;;;;;3.33;1.25;;;29.20;90.30;;;;;;1934059;74;21118;-73
2021/06/15 09:55:23;;;;;;;1.72;1.02;;;29.30;89.10;;;;;;1936560;74;21046;-74
2021/06/15 09:57:51;;;;;;;10.60;1.52;;;29.00;90.00;;;;;;1937094;72;21053;-74
2021/06/15 10:00:17;;;;;;;4.35;0.98;;;29.00;89.80;;;;;;1934242;74;21072;-74
2021/06/15 10:02:43;;;;;;;7.15;1.20;;;28.40;85.10;;;;;;1934090;74;21053;-75
2021/06/15 10:05:11;;;;;;;5.33;0.90;;;29.30;83.40;;;;;;1935522;74;21049;-78
2021/06/15 10:07:42;;;;;;;3.70;1.35;;;29.60;83.10;;;;;;1934227;74;21495;-76
2021/06/15 10:10:08;;;;;;;1.67;1.00;;;29.70;84.90;;;;;;1935438;74;21103;-77
2021/06/15 10:12:35;;;;;;;3.90;1.35;;;30.10;85.10;;;;;;1934076;74;21056;-74
2021/06/15 10:15:02;;;;;;;5.15;1.20;;;29.60;85.90;;;;;;1933833;72;21050;-75
2021/06/15 10:17:29;;;;;;;1.10;1.00;;;29.60;83.30;;;;;;1933980;74;21543;-75
2021/06/15 10:19:56;;;;;;;7.40;1.07;;;29.40;81.00;;;;;;1933691;74;21492;-83
2021/06/15 10:22:22;;;;;;;3.45;1.10;;;29.30;80.90;;;;;;1933631;74;21073;-75
2021/06/15 10:24:49;;;;;;;3.85;1.00;;;29.10;81.80;;;;;;1933622;72;21540;-86
2021/06/15 10:27:16;;;;;;;4.20;1.20;;;29.00;81.70;;;;;;1933711;74;21061;-76
2021/06/15 10:29:42;;;;;;;0.95;0.90;;;28.80;82.00;;;;;;1933590;74;21488;-75
2021/06/15 10:34:58;;;;;;;2.00;0.90;;;30.30;79.60;;;;;;1930744;72;21147;-75
2021/06/15 10:37:20;;;;;;;1.80;1.17;;;30.70;78.10;;;;;;1933218;73;21060;-72
2021/06/15 10:39:47;;;;;;;1.85;0.90;;;30.70;75.40;;;;;;1924928;72;21061;-72
2021/06/15 10:42:14;;;;;;;1.57;0.53;;;31.00;71.30;;;;;;1933526;74;21139;-73
2021/06/15 10:44:41;;;;;;;2.10;1.10;;;31.10;70.30;;;;;;1933600;74;21030;-77
2021/06/15 10:47:07;;;;;;;2.47;1.10;;;30.70;71.60;;;;;;1933735;74;21049;-75
2021/06/15 10:49:33;;;;;;;3.10;1.15;;;30.60;72.30;;;;;;1933627;74;21119;-75
2021/06/15 10:51:59;;;;;;;3.52;1.10;;;30.10;73.20;;;;;;1933629;74;21101;-75
2021/06/15 10:54:25;;;;;;;2.72;1.05;;;30.20;75.10;;;;;;1933691;74;21059;-76
2021/06/15 10:56:51;;;;;;;2.05;1.40;;;30.80;74.70;;;;;;1933626;74;21057;-74
2021/06/15 10:59:17;;;;;;;4.65;1.00;;;30.60;72.90;;;;;;1933681;74;21061;-74
2021/06/15 11:01:43;;;;;;;2.45;1.10;;;30.50;72.70;;;;;;1933598;74;21026;-74
2021/06/15 11:04:10;;;;;;;6.50;1.17;;;30.40;72.20;;;;;;1933689;74;21057;-74
2021/06/15 11:06:36;;;;;;;3.12;0.90;;;30.60;71.70;;;;;;1933656;74;21057;-75
2021/06/15 11:09:02;;;;;;;2.75;1.07;;;30.60;71.60;;;;;;1933665;74;21054;-75
2021/06/15 11:11:28;;;;;;;1.62;1.02;;;31.50;69.40;;;;;;1933346;74;21057;-74
2021/06/15 11:13:55;;;;;;;2.67;1.10;;;32.00;67.40;;;;;;1933666;74;21040;-74
2021/06/15 11:16:21;;;;;;;1.80;1.02;;;32.30;65.80;;;;;;1933567;72;21061;-74
2021/06/15 11:18:47;;;;;;;4.65;1.22;;;32.00;68.80;;;;;;1933635;74;21061;-74
2021/06/15 11:21:14;;;;;;;2.80;1.30;;;31.20;69.70;;;;;;1933559;74;21026;-73
2021/06/15 11:23:40;;;;;;;1.98;1.00;;;30.60;70.80;;;;;;1933754;74;21064;-73
2021/06/15 11:26:07;;;;;;;3.33;0.93;;;30.60;70.50;;;;;;1933748;74;21053;-73
2021/06/15 11:28:34;;;;;;;14.28;1.40;;;30.70;73.70;;;;;;1933637;74;21123;-73
2021/06/15 11:31:00;;;;;;;2.45;1.30;;;30.50;73.90;;;;;;1933514;74;21130;-73
2021/06/15 11:33:28;;;;;;;2.05;0.90;;;30.60;71.40;;;;;;1933726;74;21073;-73
2021/06/15 11:35:54;;;;;;;3.85;1.00;;;30.00;72.00;;;;;;1933524;74;21033;-74
2021/06/15 11:38:20;;;;;;;1.95;0.98;;;29.90;73.60;;;;;;1933626;74;21057;-73
2021/06/15 11:40:46;;;;;;;1.25;1.00;;;30.50;74.30;;;;;;1933610;74;21052;-73
2021/06/15 11:43:12;;;;;;;2.00;1.00;;;31.20;71.50;;;;;;1933594;74;21057;-73
2021/06/15 11:45:41;;;;;;;4.10;1.20;;;31.10;71.70;;;;;;1933444;74;21049;-73
2021/06/15 11:48:07;;;;;;;4.95;1.10;;;31.60;67.10;;;;;;1933741;74;21037;-73
2021/06/15 11:50:33;;;;;;;3.50;1.17;;;31.60;67.10;;;;;;1933575;74;21134;-73
2021/06/15 11:53:01;;;;;;;0.85;0.85;;;31.80;66.20;;;;;;1933684;72;21134;-74
2021/06/15 11:55:27;;;;;;;0.98;0.80;;;31.80;63.00;;;;;;1933882;72;21115;-74
2021/06/15 11:57:53;;;;;;;3.10;1.15;;;31.60;63.20;;;;;;1933423;74;21061;-74
2021/06/15 12:00:19;;;;;;;3.52;0.90;;;31.20;64.00;;;;;;1933631;74;21068;-74
2021/06/15 12:02:45;;;;;;;2.20;0.60;;;31.10;65.10;;;;;;1933561;74;21138;-74
2021/06/15 12:05:11;;;;;;;1.50;0.80;;;31.50;62.50;;;;;;1933462;74;21095;-75
2021/06/15 12:07:38;;;;;;;1.32;0.93;;;31.00;62.30;;;;;;1933571;74;21026;-74
2021/06/15 12:10:05;;;;;;;1.57;1.02;;;31.10;62.00;;;;;;1933453;74;21477;-75
2021/06/15 12:12:31;;;;;;;1.57;0.90;;;31.70;63.00;;;;;;1933632;74;21058;-75
2021/06/15 12:14:57;;;;;;;2.33;0.93;;;32.00;62.20;;;;;;1933443;74;21062;-74
2021/06/15 12:17:23;;;;;;;1.77;0.60;;;32.40;58.70;;;;;;1933626;74;21002;-74
2021/06/15 12:19:49;;;;;;;2.58;0.80;;;32.40;57.10;;;;;;1933503;74;21186;-75
2021/06/15 12:22:15;;;;;;;3.40;0.68;;;32.20;57.90;;;;;;1933685;72;21138;-75
2021/06/15 12:24:41;;;;;;;1.72;0.80;;;32.40;56.50;;;;;;1933423;74;21134;-75
2021/06/15 12:27:09;;;;;;;1.10;0.60;;;32.50;55.30;;;;;;1933535;74;21030;-75
2021/06/15 12:29:35;;;;;;;2.10;0.60;;;32.40;55.80;;;;;;1933567;74;21042;-75
2021/06/15 12:32:01;;;;;;;3.08;1.05;;;32.90;54.60;;;;;;1933649;74;21057;-75
2021/06/15 12:34:28;;;;;;;0.93;0.65;;;32.70;53.50;;;;;;1933659;74;21057;-75
2021/06/15 12:36:54;;;;;;;2.15;0.62;;;33.30;51.40;;;;;;1933675;74;21049;-75
2021/06/15 12:39:20;;;;;;;1.85;0.80;;;33.10;49.80;;;;;;1933699;74;21426;-75
2021/06/15 12:41:46;;;;;;;3.45;0.75;;;33.30;50.70;;;;;;1933559;74;21550;-75
2021/06/15 12:44:12;;;;;;;1.40;0.70;;;33.30;49.50;;;;;;1933576;74;21469;-74
2021/06/15 12:46:38;;;;;;;1.77;1.00;;;33.10;53.40;;;;;;1933534;72;21590;-75
2021/06/15 12:49:04;;;;;;;5.00;1.05;;;33.30;54.00;;;;;;1933547;72;21001;-75
2021/06/15 12:51:30;;;;;;;0.93;0.68;;;33.50;54.60;;;;;;1933466;73;21065;-74
2021/06/15 12:54:02;;;;;;;7.75;0.95;;;34.00;51.70;;;;;;1930424;73;21073;-76